sensor_id;sensor_type;location;lat;lon;timestamp;temperature;humidity
25024;DHT22;13033;50.936;5.334;2023-08-21T00:00:01;22.40;99.90
25024;DHT22;13033;50.936;5.334;2023-08-21T00:02:27;22.40;99.90
25024;DHT22;13033;50.936;5.334;2023-08-21T00:04:54;22.50;99.90
25024;DHT22;13033;50.936;5.334;2023-08-21T00:07:20;22.40;99.90
25024;DHT22;13033;50.936;5.334;2023-08-21T00:09:45;22.40;99.90
25024;DHT22;13033;50.936;5.334;2023-08-21T00:12:11;22.40;99.90
25024;DHT22;13033;50.936;5.334;2023-08-21T00:14:37;22.30;99.90
25024;DHT22;13033;50.936;5.334;2023-08-21T00:17:03;22.20;99.90
25024;DHT22;13033;50.936;5.334;2023-08-21T00:19:29;22.20;99.90
25024;DHT22;13033;50.936;5.334;2023-08-21T00:21:55;22.10;99.90
25024;DHT22;13033;50.936;5.334;2023-08-21T00:24:20;22.00;99.90
25024;DHT22;13033;50.936;5.334;2023-08-21T00:26:46;22.10;99.90
25024;DHT22;13033;50.936;5.334;2023-08-21T00:29:12;22.10;99.90
25024;DHT22;13033;50.936;5.334;2023-08-21T00:31:38;22.10;99.90
25024;DHT22;13033;50.936;5.334;2023-08-21T00:34:03;22.00;99.90
25024;DHT22;13033;50.936;5.334;2023-08-21T00:36:29;22.00;99.90
25024;DHT22;13033;50.936;5.334;2023-08-21T00:38:55;21.90;99.90
25024;DHT22;13033;50.936;5.334;2023-08-21T00:41:21;21.90;99.90
25024;DHT22;13033;50.936;5.334;2023-08-21T00:43:46;21.90;99.90
25024;DHT22;13033;50.936;5.334;2023-08-21T00:46:13;21.80;99.90
25024;DHT22;13033;50.936;5.334;2023-08-21T00:48:39;21.90;99.90
25024;DHT22;13033;50.936;5.334;2023-08-21T00:51:05;21.90;99.90
25024;DHT22;13033;50.936;5.334;2023-08-21T00:53:32;22.00;99.90
25024;DHT22;13033;50.936;5.334;2023-08-21T00:55:58;21.80;99.90
25024;DHT22;13033;50.936;5.334;2023-08-21T00:58:24;22.00;99.90
25024;DHT22;13033;50.936;5.334;2023-08-21T01:00:50;22.00;99.90
25024;DHT22;13033;50.936;5.334;2023-08-21T01:03:18;22.00;99.90
25024;DHT22;13033;50.936;5.334;2023-08-21T01:05:43;21.90;99.90
25024;DHT22;13033;50.936;5.334;2023-08-21T01:11:21;21.80;99.90
25024;DHT22;13033;50.936;5.334;2023-08-21T01:16:37;21.70;99.90
25024;DHT22;13033;50.936;5.334;2023-08-21T01:19:04;21.70;99.90
25024;DHT22;13033;50.936;5.334;2023-08-21T01:21:33;21.70;99.90
25024;DHT22;13033;50.936;5.334;2023-08-21T01:23:59;21.70;99.90
25024;DHT22;13033;50.936;5.334;2023-08-21T01:26:24;21.80;99.90
25024;DHT22;13033;50.936;5.334;2023-08-21T01:28:50;21.80;99.90
25024;DHT22;13033;50.936;5.334;2023-08-21T01:31:21;21.80;99.90
25024;DHT22;13033;50.936;5.334;2023-08-21T01:33:57;21.80;99.90
25024;DHT22;13033;50.936;5.334;2023-08-21T01:36:24;21.80;99.90
25024;DHT22;13033;50.936;5.334;2023-08-21T01:38:51;21.80;99.90
25024;DHT22;13033;50.936;5.334;2023-08-21T01:41:17;21.70;99.90
25024;DHT22;13033;50.936;5.334;2023-08-21T01:43:43;21.70;99.90
25024;DHT22;13033;50.936;5.334;2023-08-21T01:46:10;21.90;99.90
25024;DHT22;13033;50.936;5.334;2023-08-21T01:48:37;21.70;99.90
25024;DHT22;13033;50.936;5.334;2023-08-21T01:51:03;21.70;99.90
25024;DHT22;13033;50.936;5.334;2023-08-21T01:53:28;21.80;99.90
25024;DHT22;13033;50.936;5.334;2023-08-21T01:55:54;21.30;99.90
25024;DHT22;13033;50.936;5.334;2023-08-21T01:58:20;21.10;99.90
25024;DHT22;13033;50.936;5.334;2023-08-21T02:00:46;21.10;99.90
25024;DHT22;13033;50.936;5.334;2023-08-21T02:03:12;21.20;99.90
25024;DHT22;13033;50.936;5.334;2023-08-21T02:05:39;21.20;99.90
25024;DHT22;13033;50.936;5.334;2023-08-21T02:08:06;21.20;99.90
25024;DHT22;13033;50.936;5.334;2023-08-21T02:10:32;21.20;99.90
25024;DHT22;13033;50.936;5.334;2023-08-21T02:12:58;21.10;99.90
25024;DHT22;13033;50.936;5.334;2023-08-21T02:15:24;21.20;99.90
25024;DHT22;13033;50.936;5.334;2023-08-21T02:17:49;21.20;99.90
25024;DHT22;13033;50.936;5.334;2023-08-21T02:20:15;21.20;99.90
25024;DHT22;13033;50.936;5.334;2023-08-21T02:22:41;21.10;99.90
25024;DHT22;13033;50.936;5.334;2023-08-21T02:25:07;21.00;99.90
25024;DHT22;13033;50.936;5.334;2023-08-21T02:27:32;21.10;99.90
25024;DHT22;13033;50.936;5.334;2023-08-21T02:29:58;21.20;99.90
25024;DHT22;13033;50.936;5.334;2023-08-21T02:32:24;21.40;99.90
25024;DHT22;13033;50.936;5.334;2023-08-21T02:34:49;21.10;99.90
25024;DHT22;13033;50.936;5.334;2023-08-21T02:37:15;20.90;99.90
25024;DHT22;13033;50.936;5.334;2023-08-21T02:39:40;20.70;99.90
25024;DHT22;13033;50.936;5.334;2023-08-21T02:42:06;20.40;99.90
25024;DHT22;13033;50.936;5.334;2023-08-21T02:44:32;20.40;99.90
25024;DHT22;13033;50.936;5.334;2023-08-21T02:46:57;20.70;99.90
25024;DHT22;13033;50.936;5.334;2023-08-21T02:49:23;21.00;99.90
25024;DHT22;13033;50.936;5.334;2023-08-21T02:51:49;20.90;99.90
25024;DHT22;13033;50.936;5.334;2023-08-21T02:54:14;20.80;99.90
25024;DHT22;13033;50.936;5.334;2023-08-21T02:56:40;20.60;99.90
25024;DHT22;13033;50.936;5.334;2023-08-21T02:59:06;20.50;99.90
25024;DHT22;13033;50.936;5.334;2023-08-21T03:01:31;20.50;99.90
25024;DHT22;13033;50.936;5.334;2023-08-21T03:03:57;20.50;99.90
25024;DHT22;13033;50.936;5.334;2023-08-21T03:06:23;20.60;99.90
25024;DHT22;13033;50.936;5.334;2023-08-21T03:08:48;20.70;99.90
25024;DHT22;13033;50.936;5.334;2023-08-21T03:11:14;20.60;99.90
25024;DHT22;13033;50.936;5.334;2023-08-21T03:13:40;20.60;99.90
25024;DHT22;13033;50.936;5.334;2023-08-21T03:16:06;20.50;99.90
25024;DHT22;13033;50.936;5.334;2023-08-21T03:18:34;20.50;99.90
25024;DHT22;13033;50.936;5.334;2023-08-21T03:20:59;20.60;99.90
25024;DHT22;13033;50.936;5.334;2023-08-21T03:23:25;20.50;99.90
25024;DHT22;13033;50.936;5.334;2023-08-21T03:25:53;20.50;99.90
25024;DHT22;13033;50.936;5.334;2023-08-21T03:28:19;20.50;99.90
25024;DHT22;13033;50.936;5.334;2023-08-21T03:30:45;20.20;99.90
25024;DHT22;13033;50.936;5.334;2023-08-21T03:33:10;20.30;99.90
25024;DHT22;13033;50.936;5.334;2023-08-21T03:35:36;20.30;99.90
25024;DHT22;13033;50.936;5.334;2023-08-21T03:38:02;20.40;99.90
25024;DHT22;13033;50.936;5.334;2023-08-21T03:40:28;20.40;99.90
25024;DHT22;13033;50.936;5.334;2023-08-21T03:42:54;20.40;99.90
25024;DHT22;13033;50.936;5.334;2023-08-21T03:45:19;20.30;99.90
25024;DHT22;13033;50.936;5.334;2023-08-21T03:47:45;20.50;99.90
25024;DHT22;13033;50.936;5.334;2023-08-21T03:50:10;20.60;99.90
25024;DHT22;13033;50.936;5.334;2023-08-21T03:52:36;20.70;99.90
25024;DHT22;13033;50.936;5.334;2023-08-21T03:55:02;20.40;99.90
25024;DHT22;13033;50.936;5.334;2023-08-21T03:57:28;20.30;99.90
25024;DHT22;13033;50.936;5.334;2023-08-21T03:59:53;20.20;99.90
25024;DHT22;13033;50.936;5.334;2023-08-21T04:02:19;20.30;99.90
25024;DHT22;13033;50.936;5.334;2023-08-21T04:04:45;20.10;99.90
25024;DHT22;13033;50.936;5.334;2023-08-21T04:07:10;20.10;99.90
25024;DHT22;13033;50.936;5.334;2023-08-21T04:09:36;20.30;99.90
25024;DHT22;13033;50.936;5.334;2023-08-21T04:12:02;20.40;99.90
25024;DHT22;13033;50.936;5.334;2023-08-21T04:14:27;20.50;99.90
25024;DHT22;13033;50.936;5.334;2023-08-21T04:16:53;20.60;99.90
25024;DHT22;13033;50.936;5.334;2023-08-21T04:19:18;20.50;99.90
25024;DHT22;13033;50.936;5.334;2023-08-21T04:21:44;20.40;99.90
25024;DHT22;13033;50.936;5.334;2023-08-21T04:24:10;20.40;99.90
25024;DHT22;13033;50.936;5.334;2023-08-21T04:26:35;20.30;99.90
25024;DHT22;13033;50.936;5.334;2023-08-21T04:29:01;20.10;99.90
25024;DHT22;13033;50.936;5.334;2023-08-21T04:31:27;20.20;99.90
25024;DHT22;13033;50.936;5.334;2023-08-21T04:33:52;20.20;99.90
25024;DHT22;13033;50.936;5.334;2023-08-21T04:36:18;20.20;99.90
25024;DHT22;13033;50.936;5.334;2023-08-21T04:38:44;20.40;99.90
25024;DHT22;13033;50.936;5.334;2023-08-21T04:41:10;20.30;99.90
25024;DHT22;13033;50.936;5.334;2023-08-21T04:43:36;20.50;99.90
25024;DHT22;13033;50.936;5.334;2023-08-21T04:46:02;20.50;99.90
25024;DHT22;13033;50.936;5.334;2023-08-21T04:48:27;20.40;99.90
25024;DHT22;13033;50.936;5.334;2023-08-21T04:50:53;20.20;99.90
25024;DHT22;13033;50.936;5.334;2023-08-21T04:53:19;20.10;99.90
25024;DHT22;13033;50.936;5.334;2023-08-21T04:55:44;20.00;99.90
25024;DHT22;13033;50.936;5.334;2023-08-21T04:58:10;19.90;99.90
25024;DHT22;13033;50.936;5.334;2023-08-21T05:00:36;19.90;99.90
25024;DHT22;13033;50.936;5.334;2023-08-21T05:03:02;19.90;99.90
25024;DHT22;13033;50.936;5.334;2023-08-21T05:05:28;20.10;99.90
25024;DHT22;13033;50.936;5.334;2023-08-21T05:07:54;20.20;99.90
25024;DHT22;13033;50.936;5.334;2023-08-21T05:10:20;20.20;99.90
25024;DHT22;13033;50.936;5.334;2023-08-21T05:12:47;20.30;99.90
25024;DHT22;13033;50.936;5.334;2023-08-21T05:15:13;20.30;99.90
25024;DHT22;13033;50.936;5.334;2023-08-21T05:17:39;20.30;99.90
25024;DHT22;13033;50.936;5.334;2023-08-21T05:20:05;20.30;99.90
25024;DHT22;13033;50.936;5.334;2023-08-21T05:22:31;20.40;99.90
25024;DHT22;13033;50.936;5.334;2023-08-21T05:24:57;20.40;99.90
25024;DHT22;13033;50.936;5.334;2023-08-21T05:27:23;20.40;99.90
25024;DHT22;13033;50.936;5.334;2023-08-21T05:29:48;20.50;99.90
25024;DHT22;13033;50.936;5.334;2023-08-21T05:32:16;20.30;99.90
25024;DHT22;13033;50.936;5.334;2023-08-21T05:34:42;20.40;99.90
25024;DHT22;13033;50.936;5.334;2023-08-21T05:37:08;20.50;99.90
25024;DHT22;13033;50.936;5.334;2023-08-21T05:39:33;20.60;99.90
25024;DHT22;13033;50.936;5.334;2023-08-21T05:41:59;20.60;99.90
25024;DHT22;13033;50.936;5.334;2023-08-21T05:44:25;20.60;99.90
25024;DHT22;13033;50.936;5.334;2023-08-21T05:46:51;20.70;99.90
25024;DHT22;13033;50.936;5.334;2023-08-21T05:49:16;20.70;99.90
25024;DHT22;13033;50.936;5.334;2023-08-21T05:51:42;21.00;99.90
25024;DHT22;13033;50.936;5.334;2023-08-21T05:54:07;20.90;99.90
25024;DHT22;13033;50.936;5.334;2023-08-21T05:56:33;20.80;99.90
25024;DHT22;13033;50.936;5.334;2023-08-21T05:58:59;20.90;99.90
25024;DHT22;13033;50.936;5.334;2023-08-21T06:01:25;21.20;99.90
25024;DHT22;13033;50.936;5.334;2023-08-21T06:03:50;21.30;99.90
25024;DHT22;13033;50.936;5.334;2023-08-21T06:06:16;21.20;99.90
25024;DHT22;13033;50.936;5.334;2023-08-21T06:08:42;21.00;99.90
25024;DHT22;13033;50.936;5.334;2023-08-21T06:11:07;20.80;99.90
25024;DHT22;13033;50.936;5.334;2023-08-21T06:13:33;20.80;99.90
25024;DHT22;13033;50.936;5.334;2023-08-21T06:15:59;20.90;99.90
25024;DHT22;13033;50.936;5.334;2023-08-21T06:18:24;21.00;99.90
25024;DHT22;13033;50.936;5.334;2023-08-21T06:20:50;21.00;99.90
25024;DHT22;13033;50.936;5.334;2023-08-21T06:23:19;21.10;99.90
25024;DHT22;13033;50.936;5.334;2023-08-21T06:25:48;21.30;99.90
25024;DHT22;13033;50.936;5.334;2023-08-21T06:28:14;21.30;99.90
25024;DHT22;13033;50.936;5.334;2023-08-21T06:30:39;21.50;99.90
25024;DHT22;13033;50.936;5.334;2023-08-21T06:33:05;21.70;99.90
25024;DHT22;13033;50.936;5.334;2023-08-21T06:35:31;22.10;99.90
25024;DHT22;13033;50.936;5.334;2023-08-21T06:37:56;22.30;99.90
25024;DHT22;13033;50.936;5.334;2023-08-21T06:40:22;22.10;99.90
25024;DHT22;13033;50.936;5.334;2023-08-21T06:42:48;22.00;99.90
25024;DHT22;13033;50.936;5.334;2023-08-21T06:45:16;22.00;99.90
25024;DHT22;13033;50.936;5.334;2023-08-21T06:47:42;22.10;99.90
25024;DHT22;13033;50.936;5.334;2023-08-21T06:50:08;22.10;99.90
25024;DHT22;13033;50.936;5.334;2023-08-21T06:52:34;22.40;99.90
25024;DHT22;13033;50.936;5.334;2023-08-21T06:55:00;22.40;99.90
25024;DHT22;13033;50.936;5.334;2023-08-21T06:57:26;22.20;99.90
25024;DHT22;13033;50.936;5.334;2023-08-21T06:59:51;22.20;99.90
25024;DHT22;13033;50.936;5.334;2023-08-21T07:02:17;22.20;99.90
25024;DHT22;13033;50.936;5.334;2023-08-21T07:04:43;22.20;99.90
25024;DHT22;13033;50.936;5.334;2023-08-21T07:07:08;22.30;99.90
25024;DHT22;13033;50.936;5.334;2023-08-21T07:09:34;22.70;99.90
25024;DHT22;13033;50.936;5.334;2023-08-21T07:12:00;22.80;99.90
25024;DHT22;13033;50.936;5.334;2023-08-21T07:14:27;22.80;99.90
25024;DHT22;13033;50.936;5.334;2023-08-21T07:16:52;22.90;99.90
25024;DHT22;13033;50.936;5.334;2023-08-21T07:19:18;22.90;99.90
25024;DHT22;13033;50.936;5.334;2023-08-21T07:21:44;23.10;99.90
25024;DHT22;13033;50.936;5.334;2023-08-21T07:24:09;23.10;99.90
25024;DHT22;13033;50.936;5.334;2023-08-21T07:26:35;23.20;99.90
25024;DHT22;13033;50.936;5.334;2023-08-21T07:29:01;23.40;99.90
25024;DHT22;13033;50.936;5.334;2023-08-21T07:31:26;23.80;99.90
25024;DHT22;13033;50.936;5.334;2023-08-21T07:33:52;23.50;99.90
25024;DHT22;13033;50.936;5.334;2023-08-21T07:36:19;23.70;99.90
25024;DHT22;13033;50.936;5.334;2023-08-21T07:38:45;23.60;99.90
25024;DHT22;13033;50.936;5.334;2023-08-21T07:41:11;23.60;99.90
25024;DHT22;13033;50.936;5.334;2023-08-21T07:43:40;23.30;99.90
25024;DHT22;13033;50.936;5.334;2023-08-21T07:46:06;23.50;99.90
25024;DHT22;13033;50.936;5.334;2023-08-21T07:48:32;23.60;99.90
25024;DHT22;13033;50.936;5.334;2023-08-21T07:50:59;23.60;99.90
25024;DHT22;13033;50.936;5.334;2023-08-21T07:53:27;23.70;99.90
25024;DHT22;13033;50.936;5.334;2023-08-21T07:55:53;23.80;99.90
25024;DHT22;13033;50.936;5.334;2023-08-21T07:58:18;23.90;99.90
25024;DHT22;13033;50.936;5.334;2023-08-21T08:00:45;23.80;99.90
25024;DHT22;13033;50.936;5.334;2023-08-21T08:03:11;23.90;99.90
25024;DHT22;13033;50.936;5.334;2023-08-21T08:05:40;24.00;99.90
25024;DHT22;13033;50.936;5.334;2023-08-21T08:08:10;24.40;99.90
25024;DHT22;13033;50.936;5.334;2023-08-21T08:10:40;24.30;99.90
25024;DHT22;13033;50.936;5.334;2023-08-21T08:13:07;24.40;99.90
25024;DHT22;13033;50.936;5.334;2023-08-21T08:15:33;24.30;99.90
25024;DHT22;13033;50.936;5.334;2023-08-21T08:18:04;24.30;99.90
25024;DHT22;13033;50.936;5.334;2023-08-21T08:20:31;24.30;99.90
25024;DHT22;13033;50.936;5.334;2023-08-21T08:22:57;24.40;99.90
25024;DHT22;13033;50.936;5.334;2023-08-21T08:25:23;24.50;99.90
25024;DHT22;13033;50.936;5.334;2023-08-21T08:27:48;24.60;99.90
25024;DHT22;13033;50.936;5.334;2023-08-21T08:30:15;24.50;99.90
25024;DHT22;13033;50.936;5.334;2023-08-21T08:32:42;24.80;99.90
25024;DHT22;13033;50.936;5.334;2023-08-21T08:35:15;24.90;99.90
25024;DHT22;13033;50.936;5.334;2023-08-21T08:37:41;24.80;99.90
25024;DHT22;13033;50.936;5.334;2023-08-21T08:40:08;24.90;99.90
25024;DHT22;13033;50.936;5.334;2023-08-21T08:42:35;25.00;99.90
25024;DHT22;13033;50.936;5.334;2023-08-21T08:45:02;25.10;99.90
25024;DHT22;13033;50.936;5.334;2023-08-21T08:47:34;25.00;99.90
25024;DHT22;13033;50.936;5.334;2023-08-21T08:50:05;25.10;99.90
25024;DHT22;13033;50.936;5.334;2023-08-21T08:52:35;25.40;99.90
25024;DHT22;13033;50.936;5.334;2023-08-21T08:55:02;25.70;99.90
25024;DHT22;13033;50.936;5.334;2023-08-21T08:57:29;25.80;99.90
25024;DHT22;13033;50.936;5.334;2023-08-21T08:59:54;25.80;99.90
25024;DHT22;13033;50.936;5.334;2023-08-21T09:02:20;26.00;99.90
25024;DHT22;13033;50.936;5.334;2023-08-21T09:04:46;26.00;99.90
25024;DHT22;13033;50.936;5.334;2023-08-21T09:07:12;26.10;99.90
25024;DHT22;13033;50.936;5.334;2023-08-21T09:09:44;25.90;99.90
25024;DHT22;13033;50.936;5.334;2023-08-21T09:12:11;25.80;99.90
25024;DHT22;13033;50.936;5.334;2023-08-21T09:14:41;25.90;99.90
25024;DHT22;13033;50.936;5.334;2023-08-21T09:17:08;25.90;99.90
25024;DHT22;13033;50.936;5.334;2023-08-21T09:19:34;25.80;99.90
25024;DHT22;13033;50.936;5.334;2023-08-21T09:22:16;26.10;99.90
25024;DHT22;13033;50.936;5.334;2023-08-21T09:25:05;26.00;99.90
25024;DHT22;13033;50.936;5.334;2023-08-21T09:27:39;26.00;99.90
25024;DHT22;13033;50.936;5.334;2023-08-21T09:30:06;26.30;99.90
25024;DHT22;13033;50.936;5.334;2023-08-21T09:32:56;26.50;99.90
25024;DHT22;13033;50.936;5.334;2023-08-21T09:35:23;26.60;99.90
25024;DHT22;13033;50.936;5.334;2023-08-21T09:37:49;26.70;99.90
25024;DHT22;13033;50.936;5.334;2023-08-21T09:40:19;26.60;99.90
25024;DHT22;13033;50.936;5.334;2023-08-21T09:42:44;26.60;99.90
25024;DHT22;13033;50.936;5.334;2023-08-21T09:45:10;26.70;99.90
25024;DHT22;13033;50.936;5.334;2023-08-21T09:47:37;26.70;99.90
25024;DHT22;13033;50.936;5.334;2023-08-21T09:50:05;26.70;99.90
25024;DHT22;13033;50.936;5.334;2023-08-21T09:52:31;26.80;99.90
25024;DHT22;13033;50.936;5.334;2023-08-21T09:54:57;26.60;99.90
25024;DHT22;13033;50.936;5.334;2023-08-21T09:57:23;26.40;99.90
25024;DHT22;13033;50.936;5.334;2023-08-21T09:59:53;26.50;99.90
25024;DHT22;13033;50.936;5.334;2023-08-21T10:02:20;26.70;99.90
25024;DHT22;13033;50.936;5.334;2023-08-21T10:04:48;26.80;99.90
25024;DHT22;13033;50.936;5.334;2023-08-21T10:07:17;26.90;99.90
25024;DHT22;13033;50.936;5.334;2023-08-21T10:09:46;27.00;99.90
25024;DHT22;13033;50.936;5.334;2023-08-21T10:12:14;26.90;99.90
25024;DHT22;13033;50.936;5.334;2023-08-21T10:14:42;27.10;99.90
25024;DHT22;13033;50.936;5.334;2023-08-21T10:17:07;27.30;99.90
25024;DHT22;13033;50.936;5.334;2023-08-21T10:19:35;27.30;99.90
25024;DHT22;13033;50.936;5.334;2023-08-21T10:22:00;27.20;99.90
25024;DHT22;13033;50.936;5.334;2023-08-21T10:24:37;27.40;99.90
25024;DHT22;13033;50.936;5.334;2023-08-21T10:27:03;27.50;99.90
25024;DHT22;13033;50.936;5.334;2023-08-21T10:29:31;27.50;99.90
25024;DHT22;13033;50.936;5.334;2023-08-21T10:32:02;27.60;99.90
25024;DHT22;13033;50.936;5.334;2023-08-21T10:34:32;27.60;99.90
25024;DHT22;13033;50.936;5.334;2023-08-21T10:39:32;27.90;99.90
25024;DHT22;13033;50.936;5.334;2023-08-21T10:47:23;27.00;99.90
25024;DHT22;13033;50.936;5.334;2023-08-21T10:50:00;26.80;99.90
25024;DHT22;13033;50.936;5.334;2023-08-21T10:52:27;27.20;99.90
25024;DHT22;13033;50.936;5.334;2023-08-21T10:54:58;27.40;99.90
25024;DHT22;13033;50.936;5.334;2023-08-21T10:57:25;27.70;99.90
25024;DHT22;13033;50.936;5.334;2023-08-21T11:02:29;27.60;99.90
25024;DHT22;13033;50.936;5.334;2023-08-21T11:04:56;27.40;99.90
25024;DHT22;13033;50.936;5.334;2023-08-21T11:07:28;27.50;99.90
25024;DHT22;13033;50.936;5.334;2023-08-21T11:09:54;27.30;99.90
25024;DHT22;13033;50.936;5.334;2023-08-21T11:12:22;27.40;99.90
25024;DHT22;13033;50.936;5.334;2023-08-21T11:14:48;27.60;99.90
25024;DHT22;13033;50.936;5.334;2023-08-21T11:17:15;27.70;99.90
25024;DHT22;13033;50.936;5.334;2023-08-21T11:19:41;27.50;99.90
25024;DHT22;13033;50.936;5.334;2023-08-21T11:22:07;27.40;99.90
25024;DHT22;13033;50.936;5.334;2023-08-21T11:24:47;27.30;99.90
25024;DHT22;13033;50.936;5.334;2023-08-21T11:27:15;27.30;99.90
25024;DHT22;13033;50.936;5.334;2023-08-21T11:29:48;27.40;99.90
25024;DHT22;13033;50.936;5.334;2023-08-21T11:32:20;27.50;99.90
25024;DHT22;13033;50.936;5.334;2023-08-21T11:34:52;27.70;99.90
25024;DHT22;13033;50.936;5.334;2023-08-21T11:37:20;27.90;99.90
25024;DHT22;13033;50.936;5.334;2023-08-21T11:39:51;28.10;99.90
25024;DHT22;13033;50.936;5.334;2023-08-21T11:42:19;28.70;99.90
25024;DHT22;13033;50.936;5.334;2023-08-21T11:44:46;29.10;99.90
25024;DHT22;13033;50.936;5.334;2023-08-21T11:47:13;29.20;99.90
25024;DHT22;13033;50.936;5.334;2023-08-21T11:49:42;29.20;99.90
25024;DHT22;13033;50.936;5.334;2023-08-21T11:52:12;29.60;99.90
25024;DHT22;13033;50.936;5.334;2023-08-21T11:54:39;29.70;99.90
25024;DHT22;13033;50.936;5.334;2023-08-21T11:57:13;29.10;99.90
25024;DHT22;13033;50.936;5.334;2023-08-21T11:59:39;28.60;99.90
25024;DHT22;13033;50.936;5.334;2023-08-21T12:02:16;28.40;99.90
25024;DHT22;13033;50.936;5.334;2023-08-21T12:04:42;28.30;99.90
25024;DHT22;13033;50.936;5.334;2023-08-21T12:07:08;28.10;99.90
25024;DHT22;13033;50.936;5.334;2023-08-21T12:09:34;28.10;99.90
25024;DHT22;13033;50.936;5.334;2023-08-21T12:12:00;28.30;99.90
25024;DHT22;13033;50.936;5.334;2023-08-21T12:14:28;28.40;99.90
25024;DHT22;13033;50.936;5.334;2023-08-21T12:16:54;28.60;99.90
25024;DHT22;13033;50.936;5.334;2023-08-21T12:19:21;28.50;99.90
25024;DHT22;13033;50.936;5.334;2023-08-21T12:21:47;28.50;99.90
25024;DHT22;13033;50.936;5.334;2023-08-21T12:24:13;28.00;99.90
25024;DHT22;13033;50.936;5.334;2023-08-21T12:26:39;27.90;99.90
25024;DHT22;13033;50.936;5.334;2023-08-21T12:29:04;27.80;99.90
25024;DHT22;13033;50.936;5.334;2023-08-21T12:31:30;28.00;99.90
25024;DHT22;13033;50.936;5.334;2023-08-21T12:33:56;28.40;99.90
25024;DHT22;13033;50.936;5.334;2023-08-21T12:36:22;28.70;99.90
25024;DHT22;13033;50.936;5.334;2023-08-21T12:38:48;28.50;99.90
25024;DHT22;13033;50.936;5.334;2023-08-21T12:41:13;28.60;99.90
25024;DHT22;13033;50.936;5.334;2023-08-21T12:43:39;28.50;99.90
25024;DHT22;13033;50.936;5.334;2023-08-21T12:46:05;28.80;99.90
25024;DHT22;13033;50.936;5.334;2023-08-21T12:48:31;28.90;99.90
25024;DHT22;13033;50.936;5.334;2023-08-21T12:50:56;29.00;99.90
25024;DHT22;13033;50.936;5.334;2023-08-21T12:53:22;29.20;99.50
25024;DHT22;13033;50.936;5.334;2023-08-21T12:55:48;29.40;98.90
25024;DHT22;13033;50.936;5.334;2023-08-21T12:58:14;29.30;98.70
25024;DHT22;13033;50.936;5.334;2023-08-21T13:00:40;29.20;98.20
25024;DHT22;13033;50.936;5.334;2023-08-21T13:03:06;29.30;97.90
25024;DHT22;13033;50.936;5.334;2023-08-21T13:05:31;29.40;97.70
25024;DHT22;13033;50.936;5.334;2023-08-21T13:07:57;29.00;97.20
25024;DHT22;13033;50.936;5.334;2023-08-21T13:10:23;28.80;97.30
25024;DHT22;13033;50.936;5.334;2023-08-21T13:12:48;28.60;96.90
25024;DHT22;13033;50.936;5.334;2023-08-21T13:15:15;28.70;97.40
25024;DHT22;13033;50.936;5.334;2023-08-21T13:17:41;28.80;97.50
25024;DHT22;13033;50.936;5.334;2023-08-21T13:20:09;28.90;97.20
25024;DHT22;13033;50.936;5.334;2023-08-21T13:22:50;29.10;96.70
25024;DHT22;13033;50.936;5.334;2023-08-21T13:25:18;29.30;96.30
25024;DHT22;13033;50.936;5.334;2023-08-21T13:27:46;29.40;96.80
25024;DHT22;13033;50.936;5.334;2023-08-21T13:30:12;29.10;97.60
25024;DHT22;13033;50.936;5.334;2023-08-21T13:32:38;29.00;97.30
25024;DHT22;13033;50.936;5.334;2023-08-21T13:35:04;29.00;97.60
25024;DHT22;13033;50.936;5.334;2023-08-21T13:37:36;28.80;97.90
25024;DHT22;13033;50.936;5.334;2023-08-21T13:40:03;28.50;98.10
25024;DHT22;13033;50.936;5.334;2023-08-21T13:42:40;28.20;98.40
25024;DHT22;13033;50.936;5.334;2023-08-21T13:45:09;28.00;98.90
25024;DHT22;13033;50.936;5.334;2023-08-21T13:47:41;28.00;99.40
25024;DHT22;13033;50.936;5.334;2023-08-21T13:50:07;28.10;98.80
25024;DHT22;13033;50.936;5.334;2023-08-21T13:52:34;28.40;98.10
25024;DHT22;13033;50.936;5.334;2023-08-21T13:55:01;28.50;98.20
25024;DHT22;13033;50.936;5.334;2023-08-21T13:57:27;28.60;97.60
25024;DHT22;13033;50.936;5.334;2023-08-21T13:59:53;28.80;97.90
25024;DHT22;13033;50.936;5.334;2023-08-21T14:02:19;29.10;97.00
25024;DHT22;13033;50.936;5.334;2023-08-21T14:04:45;29.20;96.40
25024;DHT22;13033;50.936;5.334;2023-08-21T14:07:12;29.50;95.80
25024;DHT22;13033;50.936;5.334;2023-08-21T14:09:38;29.60;95.00
25024;DHT22;13033;50.936;5.334;2023-08-21T14:12:04;29.70;95.10
25024;DHT22;13033;50.936;5.334;2023-08-21T14:14:32;29.40;95.00
25024;DHT22;13033;50.936;5.334;2023-08-21T14:16:58;29.60;94.70
25024;DHT22;13033;50.936;5.334;2023-08-21T14:19:24;30.00;94.10
25024;DHT22;13033;50.936;5.334;2023-08-21T14:21:50;30.20;93.70
25024;DHT22;13033;50.936;5.334;2023-08-21T14:24:15;30.20;93.80
25024;DHT22;13033;50.936;5.334;2023-08-21T14:26:42;30.30;93.90
25024;DHT22;13033;50.936;5.334;2023-08-21T14:29:07;30.30;94.00
25024;DHT22;13033;50.936;5.334;2023-08-21T14:31:33;30.20;93.30
25024;DHT22;13033;50.936;5.334;2023-08-21T14:33:59;30.30;93.20
25024;DHT22;13033;50.936;5.334;2023-08-21T14:36:25;30.70;92.80
25024;DHT22;13033;50.936;5.334;2023-08-21T14:38:50;30.70;93.20
25024;DHT22;13033;50.936;5.334;2023-08-21T14:41:17;32.00;91.30
25024;DHT22;13033;50.936;5.334;2023-08-21T14:43:43;33.10;87.50
25024;DHT22;13033;50.936;5.334;2023-08-21T14:46:09;34.20;83.60
25024;DHT22;13033;50.936;5.334;2023-08-21T14:48:36;34.00;81.20
25024;DHT22;13033;50.936;5.334;2023-08-21T14:51:02;34.30;79.00
25024;DHT22;13033;50.936;5.334;2023-08-21T14:53:28;34.60;76.50
25024;DHT22;13033;50.936;5.334;2023-08-21T14:55:53;34.60;75.90
25024;DHT22;13033;50.936;5.334;2023-08-21T14:58:19;34.40;76.00
25024;DHT22;13033;50.936;5.334;2023-08-21T15:00:45;34.10;74.40
25024;DHT22;13033;50.936;5.334;2023-08-21T15:03:10;33.50;75.20
25024;DHT22;13033;50.936;5.334;2023-08-21T15:05:36;32.40;78.60
25024;DHT22;13033;50.936;5.334;2023-08-21T15:08:02;31.90;79.40
25024;DHT22;13033;50.936;5.334;2023-08-21T15:10:28;32.20;79.00
25024;DHT22;13033;50.936;5.334;2023-08-21T15:12:53;32.90;76.90
25024;DHT22;13033;50.936;5.334;2023-08-21T15:15:19;34.40;73.40
25024;DHT22;13033;50.936;5.334;2023-08-21T15:17:48;35.20;69.80
25024;DHT22;13033;50.936;5.334;2023-08-21T15:20:13;35.20;68.90
25024;DHT22;13033;50.936;5.334;2023-08-21T15:22:40;34.80;69.00
25024;DHT22;13033;50.936;5.334;2023-08-21T15:25:06;35.30;67.80
25024;DHT22;13033;50.936;5.334;2023-08-21T15:27:32;35.70;66.40
25024;DHT22;13033;50.936;5.334;2023-08-21T15:29:58;36.40;64.00
25024;DHT22;13033;50.936;5.334;2023-08-21T15:32:23;36.70;62.10
25024;DHT22;13033;50.936;5.334;2023-08-21T15:34:49;36.30;60.30
25024;DHT22;13033;50.936;5.334;2023-08-21T15:37:15;35.80;61.60
25024;DHT22;13033;50.936;5.334;2023-08-21T15:39:40;36.00;61.40
25024;DHT22;13033;50.936;5.334;2023-08-21T15:42:06;36.60;59.90